sensor_id;sensor_type;location;lat;lon;timestamp;temperature;humidity
10282;DHT22;5186;59.472;18.048;2023-02-28T00:01:29;-0.10;99.90
10282;DHT22;5186;59.472;18.048;2023-02-28T00:03:57;-0.10;99.90
10282;DHT22;5186;59.472;18.048;2023-02-28T00:06:24;-0.20;99.90
10282;DHT22;5186;59.472;18.048;2023-02-28T00:09:10;-0.10;99.90
10282;DHT22;5186;59.472;18.048;2023-02-28T00:12:18;-0.20;99.90
10282;DHT22;5186;59.472;18.048;2023-02-28T00:16:02;-0.20;99.90
10282;DHT22;5186;59.472;18.048;2023-02-28T00:18:28;-0.30;99.90
10282;DHT22;5186;59.472;18.048;2023-02-28T00:20:54;-0.30;99.90
10282;DHT22;5186;59.472;18.048;2023-02-28T00:23:19;-0.30;99.90
10282;DHT22;5186;59.472;18.048;2023-02-28T00:25:45;-0.30;99.90
10282;DHT22;5186;59.472;18.048;2023-02-28T00:28:11;-0.30;99.90
10282;DHT22;5186;59.472;18.048;2023-02-28T00:30:36;-0.30;99.90
10282;DHT22;5186;59.472;18.048;2023-02-28T00:33:02;-0.30;99.90
10282;DHT22;5186;59.472;18.048;2023-02-28T00:35:27;-0.40;99.90
10282;DHT22;5186;59.472;18.048;2023-02-28T00:37:53;-0.40;99.90
10282;DHT22;5186;59.472;18.048;2023-02-28T00:40:19;-0.40;99.90
10282;DHT22;5186;59.472;18.048;2023-02-28T00:42:44;-0.40;99.90
10282;DHT22;5186;59.472;18.048;2023-02-28T00:45:10;-0.40;99.90
10282;DHT22;5186;59.472;18.048;2023-02-28T00:47:35;-0.40;99.90
10282;DHT22;5186;59.472;18.048;2023-02-28T00:50:02;-0.40;99.90
10282;DHT22;5186;59.472;18.048;2023-02-28T00:52:27;-0.40;99.90
10282;DHT22;5186;59.472;18.048;2023-02-28T00:54:53;-0.40;99.90
10282;DHT22;5186;59.472;18.048;2023-02-28T00:57:19;-0.50;99.90
10282;DHT22;5186;59.472;18.048;2023-02-28T00:59:44;-0.50;99.90
10282;DHT22;5186;59.472;18.048;2023-02-28T01:02:10;-0.50;99.90
10282;DHT22;5186;59.472;18.048;2023-02-28T01:04:35;-0.50;99.90
10282;DHT22;5186;59.472;18.048;2023-02-28T01:07:01;-0.50;99.90
10282;DHT22;5186;59.472;18.048;2023-02-28T01:09:27;-0.50;99.90
10282;DHT22;5186;59.472;18.048;2023-02-28T01:11:52;-0.50;99.90
10282;DHT22;5186;59.472;18.048;2023-02-28T01:14:18;-0.60;99.90
10282;DHT22;5186;59.472;18.048;2023-02-28T01:16:44;-0.60;99.90
10282;DHT22;5186;59.472;18.048;2023-02-28T01:19:10;-0.60;99.90
10282;DHT22;5186;59.472;18.048;2023-02-28T01:21:35;-0.60;99.90
10282;DHT22;5186;59.472;18.048;2023-02-28T01:24:03;-0.60;99.90
10282;DHT22;5186;59.472;18.048;2023-02-28T01:26:29;-0.60;99.90
10282;DHT22;5186;59.472;18.048;2023-02-28T01:28:55;-0.60;99.90
10282;DHT22;5186;59.472;18.048;2023-02-28T01:31:21;-0.60;99.90
10282;DHT22;5186;59.472;18.048;2023-02-28T01:33:47;-0.60;99.90
10282;DHT22;5186;59.472;18.048;2023-02-28T01:36:15;-0.60;99.90
10282;DHT22;5186;59.472;18.048;2023-02-28T01:38:42;-0.60;99.90
10282;DHT22;5186;59.472;18.048;2023-02-28T01:41:09;-0.60;99.90
10282;DHT22;5186;59.472;18.048;2023-02-28T01:46:09;-0.70;99.90
10282;DHT22;5186;59.472;18.048;2023-02-28T01:48:38;-0.70;99.90
10282;DHT22;5186;59.472;18.048;2023-02-28T01:51:11;-0.70;99.90
10282;DHT22;5186;59.472;18.048;2023-02-28T01:53:43;-0.70;99.90
10282;DHT22;5186;59.472;18.048;2023-02-28T01:56:12;-0.70;99.90
10282;DHT22;5186;59.472;18.048;2023-02-28T01:58:38;-0.70;99.90
10282;DHT22;5186;59.472;18.048;2023-02-28T02:01:04;-0.70;99.90
10282;DHT22;5186;59.472;18.048;2023-02-28T02:03:30;-0.70;99.90
10282;DHT22;5186;59.472;18.048;2023-02-28T02:05:56;-0.60;99.90
10282;DHT22;5186;59.472;18.048;2023-02-28T02:08:26;-0.70;99.90
10282;DHT22;5186;59.472;18.048;2023-02-28T02:10:58;-0.70;99.90
10282;DHT22;5186;59.472;18.048;2023-02-28T02:13:37;-0.70;99.90
10282;DHT22;5186;59.472;18.048;2023-02-28T02:18:52;-0.60;99.90
10282;DHT22;5186;59.472;18.048;2023-02-28T02:27:16;-0.70;99.90
10282;DHT22;5186;59.472;18.048;2023-02-28T02:30:00;-0.70;99.90
10282;DHT22;5186;59.472;18.048;2023-02-28T02:33:15;-0.70;99.90
10282;DHT22;5186;59.472;18.048;2023-02-28T02:40:40;-0.70;99.90
10282;DHT22;5186;59.472;18.048;2023-02-28T02:43:19;-0.70;99.90
10282;DHT22;5186;59.472;18.048;2023-02-28T02:45:52;-0.80;99.90
10282;DHT22;5186;59.472;18.048;2023-02-28T02:48:24;-0.70;99.90
10282;DHT22;5186;59.472;18.048;2023-02-28T02:50:57;-0.70;99.90
10282;DHT22;5186;59.472;18.048;2023-02-28T02:53:30;-0.80;99.90
10282;DHT22;5186;59.472;18.048;2023-02-28T02:55:59;-0.80;99.90
10282;DHT22;5186;59.472;18.048;2023-02-28T02:58:29;-0.90;99.90
10282;DHT22;5186;59.472;18.048;2023-02-28T03:00:59;-0.90;99.90
10282;DHT22;5186;59.472;18.048;2023-02-28T03:03:27;-1.00;99.90
10282;DHT22;5186;59.472;18.048;2023-02-28T03:05:56;-0.90;99.90
10282;DHT22;5186;59.472;18.048;2023-02-28T03:08:22;-0.90;99.90
10282;DHT22;5186;59.472;18.048;2023-02-28T03:10:59;-0.90;99.90
10282;DHT22;5186;59.472;18.048;2023-02-28T03:19:37;-1.00;99.90
10282;DHT22;5186;59.472;18.048;2023-02-28T03:22:33;-1.00;99.90
10282;DHT22;5186;59.472;18.048;2023-02-28T03:25:30;-1.10;99.90
10282;DHT22;5186;59.472;18.048;2023-02-28T03:30:42;-1.10;99.90
10282;DHT22;5186;59.472;18.048;2023-02-28T03:33:18;-1.10;99.90
10282;DHT22;5186;59.472;18.048;2023-02-28T03:35:52;-1.20;99.90
10282;DHT22;5186;59.472;18.048;2023-02-28T03:38:28;-1.20;99.90
10282;DHT22;5186;59.472;18.048;2023-02-28T03:41:05;-1.20;99.90
10282;DHT22;5186;59.472;18.048;2023-02-28T03:43:34;-1.20;99.90
10282;DHT22;5186;59.472;18.048;2023-02-28T03:46:04;-1.10;99.90
10282;DHT22;5186;59.472;18.048;2023-02-28T03:48:46;-1.10;99.90
10282;DHT22;5186;59.472;18.048;2023-02-28T03:51:17;-1.10;99.90
10282;DHT22;5186;59.472;18.048;2023-02-28T03:53:50;-1.20;99.90
10282;DHT22;5186;59.472;18.048;2023-02-28T03:56:26;-1.20;99.90
10282;DHT22;5186;59.472;18.048;2023-02-28T03:59:05;-1.20;99.90
10282;DHT22;5186;59.472;18.048;2023-02-28T04:01:43;-1.20;99.90
10282;DHT22;5186;59.472;18.048;2023-02-28T04:04:10;-1.30;99.90
10282;DHT22;5186;59.472;18.048;2023-02-28T04:06:36;-1.30;99.90
10282;DHT22;5186;59.472;18.048;2023-02-28T04:09:03;-1.30;99.90
10282;DHT22;5186;59.472;18.048;2023-02-28T04:11:43;-1.30;99.90
10282;DHT22;5186;59.472;18.048;2023-02-28T04:14:10;-1.30;99.90
10282;DHT22;5186;59.472;18.048;2023-02-28T04:16:39;-1.30;99.90
10282;DHT22;5186;59.472;18.048;2023-02-28T04:19:06;-1.20;99.90
10282;DHT22;5186;59.472;18.048;2023-02-28T04:21:35;-1.30;99.90
10282;DHT22;5186;59.472;18.048;2023-02-28T04:24:02;-1.30;99.90
10282;DHT22;5186;59.472;18.048;2023-02-28T04:26:32;-1.30;99.90
10282;DHT22;5186;59.472;18.048;2023-02-28T04:28:59;-1.30;99.90
10282;DHT22;5186;59.472;18.048;2023-02-28T04:31:25;-1.40;99.90
10282;DHT22;5186;59.472;18.048;2023-02-28T04:33:51;-1.40;99.90
10282;DHT22;5186;59.472;18.048;2023-02-28T04:36:17;-1.40;99.90
10282;DHT22;5186;59.472;18.048;2023-02-28T04:38:44;-1.40;99.90
10282;DHT22;5186;59.472;18.048;2023-02-28T04:41:10;-1.30;99.90
10282;DHT22;5186;59.472;18.048;2023-02-28T04:43:36;-1.40;99.90
10282;DHT22;5186;59.472;18.048;2023-02-28T04:46:03;-1.40;99.90
10282;DHT22;5186;59.472;18.048;2023-02-28T04:48:32;-1.40;99.90
10282;DHT22;5186;59.472;18.048;2023-02-28T04:51:09;-1.40;99.90
10282;DHT22;5186;59.472;18.048;2023-02-28T04:53:36;-1.50;99.90
10282;DHT22;5186;59.472;18.048;2023-02-28T04:56:03;-1.50;99.90
10282;DHT22;5186;59.472;18.048;2023-02-28T04:58:30;-1.50;99.90
10282;DHT22;5186;59.472;18.048;2023-02-28T05:01:03;-1.60;99.90
10282;DHT22;5186;59.472;18.048;2023-02-28T05:03:29;-1.60;99.90
10282;DHT22;5186;59.472;18.048;2023-02-28T05:05:54;-1.60;99.90
10282;DHT22;5186;59.472;18.048;2023-02-28T05:08:20;-1.60;99.90
10282;DHT22;5186;59.472;18.048;2023-02-28T05:10:45;-1.70;99.90
10282;DHT22;5186;59.472;18.048;2023-02-28T05:13:14;-1.70;99.90
10282;DHT22;5186;59.472;18.048;2023-02-28T05:15:39;-1.70;99.90
10282;DHT22;5186;59.472;18.048;2023-02-28T05:18:05;-1.70;99.90
10282;DHT22;5186;59.472;18.048;2023-02-28T05:20:31;-1.70;99.90
10282;DHT22;5186;59.472;18.048;2023-02-28T05:22:58;-1.70;99.90
10282;DHT22;5186;59.472;18.048;2023-02-28T05:25:24;-1.70;99.90
10282;DHT22;5186;59.472;18.048;2023-02-28T05:27:50;-1.60;99.90
10282;DHT22;5186;59.472;18.048;2023-02-28T05:30:16;-1.70;99.90
10282;DHT22;5186;59.472;18.048;2023-02-28T05:32:42;-1.70;99.90
10282;DHT22;5186;59.472;18.048;2023-02-28T05:35:11;-1.70;99.90
10282;DHT22;5186;59.472;18.048;2023-02-28T05:37:38;-1.70;99.90
10282;DHT22;5186;59.472;18.048;2023-02-28T05:40:05;-1.70;99.90
10282;DHT22;5186;59.472;18.048;2023-02-28T05:42:37;-1.70;99.90
10282;DHT22;5186;59.472;18.048;2023-02-28T05:45:04;-1.70;99.90
10282;DHT22;5186;59.472;18.048;2023-02-28T05:47:30;-1.70;99.90
10282;DHT22;5186;59.472;18.048;2023-02-28T05:49:56;-1.70;99.90
10282;DHT22;5186;59.472;18.048;2023-02-28T05:52:21;-1.70;99.90
10282;DHT22;5186;59.472;18.048;2023-02-28T05:54:47;-1.60;99.90
10282;DHT22;5186;59.472;18.048;2023-02-28T05:57:13;-1.70;99.90
10282;DHT22;5186;59.472;18.048;2023-02-28T05:59:38;-1.70;99.90
10282;DHT22;5186;59.472;18.048;2023-02-28T06:02:10;-1.70;99.90
10282;DHT22;5186;59.472;18.048;2023-02-28T06:04:37;-1.70;99.90
10282;DHT22;5186;59.472;18.048;2023-02-28T06:07:02;-1.70;99.90
10282;DHT22;5186;59.472;18.048;2023-02-28T06:09:28;-1.70;99.90
10282;DHT22;5186;59.472;18.048;2023-02-28T06:11:54;-1.70;99.90
10282;DHT22;5186;59.472;18.048;2023-02-28T06:14:20;-1.70;99.90
10282;DHT22;5186;59.472;18.048;2023-02-28T06:16:46;-1.70;99.90
10282;DHT22;5186;59.472;18.048;2023-02-28T06:19:12;-1.60;99.90
10282;DHT22;5186;59.472;18.048;2023-02-28T06:21:38;-1.60;99.90
10282;DHT22;5186;59.472;18.048;2023-02-28T06:24:04;-1.60;99.90
10282;DHT22;5186;59.472;18.048;2023-02-28T06:26:30;-1.50;99.90
10282;DHT22;5186;59.472;18.048;2023-02-28T06:28:56;-1.50;99.90
10282;DHT22;5186;59.472;18.048;2023-02-28T06:31:22;-1.50;99.90
10282;DHT22;5186;59.472;18.048;2023-02-28T06:33:48;-1.50;99.90
10282;DHT22;5186;59.472;18.048;2023-02-28T06:36:15;-1.40;99.90
10282;DHT22;5186;59.472;18.048;2023-02-28T06:38:41;-1.40;99.90
10282;DHT22;5186;59.472;18.048;2023-02-28T06:41:08;-1.40;99.90
10282;DHT22;5186;59.472;18.048;2023-02-28T06:43:37;-1.40;99.90
10282;DHT22;5186;59.472;18.048;2023-02-28T06:46:05;-1.30;99.90
10282;DHT22;5186;59.472;18.048;2023-02-28T06:48:31;-1.30;99.90
10282;DHT22;5186;59.472;18.048;2023-02-28T06:53:32;-1.10;99.90
10282;DHT22;5186;59.472;18.048;2023-02-28T06:55:57;-1.00;99.90
10282;DHT22;5186;59.472;18.048;2023-02-28T06:58:23;-1.00;99.90
10282;DHT22;5186;59.472;18.048;2023-02-28T07:00:51;-0.90;99.90
10282;DHT22;5186;59.472;18.048;2023-02-28T07:03:17;-0.80;99.90
10282;DHT22;5186;59.472;18.048;2023-02-28T07:05:44;-0.70;99.90
10282;DHT22;5186;59.472;18.048;2023-02-28T07:08:10;-0.60;99.90
10282;DHT22;5186;59.472;18.048;2023-02-28T07:10:39;-0.50;99.90
10282;DHT22;5186;59.472;18.048;2023-02-28T07:13:07;-0.50;99.90
10282;DHT22;5186;59.472;18.048;2023-02-28T07:15:32;-0.40;99.90
10282;DHT22;5186;59.472;18.048;2023-02-28T07:17:58;-0.30;99.90
10282;DHT22;5186;59.472;18.048;2023-02-28T07:20:24;-0.20;99.90
10282;DHT22;5186;59.472;18.048;2023-02-28T07:22:50;-0.10;99.90
10282;DHT22;5186;59.472;18.048;2023-02-28T07:25:23;-0.10;99.90
10282;DHT22;5186;59.472;18.048;2023-02-28T07:27:49;0.00;99.90
10282;DHT22;5186;59.472;18.048;2023-02-28T07:30:15;0.10;99.90
10282;DHT22;5186;59.472;18.048;2023-02-28T07:32:40;0.20;99.90
10282;DHT22;5186;59.472;18.048;2023-02-28T07:35:06;0.30;99.90
10282;DHT22;5186;59.472;18.048;2023-02-28T07:37:32;0.40;99.90
10282;DHT22;5186;59.472;18.048;2023-02-28T07:40:03;0.40;99.90
10282;DHT22;5186;59.472;18.048;2023-02-28T07:42:32;0.40;99.90
10282;DHT22;5186;59.472;18.048;2023-02-28T07:44:57;0.50;99.90
10282;DHT22;5186;59.472;18.048;2023-02-28T07:47:24;0.70;99.90
10282;DHT22;5186;59.472;18.048;2023-02-28T07:49:50;0.80;99.90
10282;DHT22;5186;59.472;18.048;2023-02-28T07:52:15;0.80;99.90
10282;DHT22;5186;59.472;18.048;2023-02-28T07:54:41;0.90;99.90
10282;DHT22;5186;59.472;18.048;2023-02-28T07:57:06;1.00;99.90
10282;DHT22;5186;59.472;18.048;2023-02-28T07:59:32;1.10;99.90
10282;DHT22;5186;59.472;18.048;2023-02-28T08:01:58;1.20;99.90
10282;DHT22;5186;59.472;18.048;2023-02-28T08:04:25;1.30;99.90
10282;DHT22;5186;59.472;18.048;2023-02-28T08:06:51;1.40;99.90
10282;DHT22;5186;59.472;18.048;2023-02-28T08:09:18;1.40;99.90
10282;DHT22;5186;59.472;18.048;2023-02-28T08:11:44;1.60;99.90
10282;DHT22;5186;59.472;18.048;2023-02-28T08:14:09;1.70;99.90
10282;DHT22;5186;59.472;18.048;2023-02-28T08:16:35;1.70;99.90
10282;DHT22;5186;59.472;18.048;2023-02-28T08:19:01;1.80;99.90
10282;DHT22;5186;59.472;18.048;2023-02-28T08:21:26;1.90;99.90
10282;DHT22;5186;59.472;18.048;2023-02-28T08:23:52;2.00;99.90
10282;DHT22;5186;59.472;18.048;2023-02-28T08:26:19;2.10;99.90
10282;DHT22;5186;59.472;18.048;2023-02-28T08:28:45;2.20;99.90
10282;DHT22;5186;59.472;18.048;2023-02-28T08:31:12;2.20;99.90
10282;DHT22;5186;59.472;18.048;2023-02-28T08:33:39;2.30;99.90
10282;DHT22;5186;59.472;18.048;2023-02-28T08:36:06;2.40;99.90
10282;DHT22;5186;59.472;18.048;2023-02-28T08:38:32;2.50;99.90
10282;DHT22;5186;59.472;18.048;2023-02-28T08:41:00;2.60;99.90
10282;DHT22;5186;59.472;18.048;2023-02-28T08:43:26;2.60;99.90
10282;DHT22;5186;59.472;18.048;2023-02-28T08:45:53;2.60;99.90
10282;DHT22;5186;59.472;18.048;2023-02-28T08:48:18;2.70;99.90
10282;DHT22;5186;59.472;18.048;2023-02-28T08:50:44;2.70;99.90
10282;DHT22;5186;59.472;18.048;2023-02-28T08:53:09;2.80;99.90
10282;DHT22;5186;59.472;18.048;2023-02-28T08:55:35;2.90;99.90
10282;DHT22;5186;59.472;18.048;2023-02-28T08:58:01;2.90;99.90
10282;DHT22;5186;59.472;18.048;2023-02-28T09:00:26;3.00;99.90
10282;DHT22;5186;59.472;18.048;2023-02-28T09:02:52;3.10;99.90
10282;DHT22;5186;59.472;18.048;2023-02-28T09:05:18;3.10;99.90
10282;DHT22;5186;59.472;18.048;2023-02-28T09:07:44;3.30;99.90
10282;DHT22;5186;59.472;18.048;2023-02-28T09:10:10;3.40;99.90
10282;DHT22;5186;59.472;18.048;2023-02-28T09:12:35;3.40;99.90
10282;DHT22;5186;59.472;18.048;2023-02-28T09:15:02;3.50;99.90
10282;DHT22;5186;59.472;18.048;2023-02-28T09:17:27;3.60;99.90
10282;DHT22;5186;59.472;18.048;2023-02-28T09:19:53;3.60;99.90
10282;DHT22;5186;59.472;18.048;2023-02-28T09:22:19;3.80;99.90
10282;DHT22;5186;59.472;18.048;2023-02-28T09:24:44;3.90;99.90
10282;DHT22;5186;59.472;18.048;2023-02-28T09:27:10;4.00;99.90
10282;DHT22;5186;59.472;18.048;2023-02-28T09:29:36;4.10;99.90
10282;DHT22;5186;59.472;18.048;2023-02-28T09:32:02;4.10;99.90
10282;DHT22;5186;59.472;18.048;2023-02-28T09:34:28;4.20;99.90
10282;DHT22;5186;59.472;18.048;2023-02-28T09:36:56;4.30;99.90
10282;DHT22;5186;59.472;18.048;2023-02-28T09:39:22;4.40;99.90
10282;DHT22;5186;59.472;18.048;2023-02-28T09:41:51;4.50;99.90
10282;DHT22;5186;59.472;18.048;2023-02-28T09:44:39;4.60;99.90
10282;DHT22;5186;59.472;18.048;2023-02-28T09:49:49;4.70;99.90
10282;DHT22;5186;59.472;18.048;2023-02-28T09:52:18;4.80;99.90
10282;DHT22;5186;59.472;18.048;2023-02-28T09:54:45;4.90;99.90
10282;DHT22;5186;59.472;18.048;2023-02-28T10:00:24;5.00;99.90
10282;DHT22;5186;59.472;18.048;2023-02-28T10:08:32;5.20;99.90
10282;DHT22;5186;59.472;18.048;2023-02-28T10:11:01;5.30;99.90
10282;DHT22;5186;59.472;18.048;2023-02-28T10:19:03;5.50;99.90
10282;DHT22;5186;59.472;18.048;2023-02-28T10:21:37;5.60;99.90
10282;DHT22;5186;59.472;18.048;2023-02-28T10:24:25;5.60;99.90
10282;DHT22;5186;59.472;18.048;2023-02-28T10:26:56;5.70;99.90
10282;DHT22;5186;59.472;18.048;2023-02-28T10:29:24;5.80;99.90
10282;DHT22;5186;59.472;18.048;2023-02-28T10:31:50;5.90;99.90
10282;DHT22;5186;59.472;18.048;2023-02-28T10:34:15;5.90;99.90
10282;DHT22;5186;59.472;18.048;2023-02-28T10:36:41;5.90;99.90
10282;DHT22;5186;59.472;18.048;2023-02-28T10:42:04;6.00;99.90
10282;DHT22;5186;59.472;18.048;2023-02-28T10:44:30;6.10;99.90
10282;DHT22;5186;59.472;18.048;2023-02-28T10:46:56;6.20;99.90
10282;DHT22;5186;59.472;18.048;2023-02-28T10:49:31;6.20;99.90
10282;DHT22;5186;59.472;18.048;2023-02-28T10:51:58;6.30;99.90
10282;DHT22;5186;59.472;18.048;2023-02-28T10:54:29;6.30;99.90
10282;DHT22;5186;59.472;18.048;2023-02-28T10:57:16;6.40;99.90
10282;DHT22;5186;59.472;18.048;2023-02-28T10:59:43;6.50;99.90
10282;DHT22;5186;59.472;18.048;2023-02-28T11:04:54;6.60;99.90
10282;DHT22;5186;59.472;18.048;2023-02-28T11:07:20;6.60;99.90
10282;DHT22;5186;59.472;18.048;2023-02-28T11:09:50;6.70;99.90
10282;DHT22;5186;59.472;18.048;2023-02-28T11:12:37;6.70;99.90
10282;DHT22;5186;59.472;18.048;2023-02-28T11:15:25;6.80;99.90
10282;DHT22;5186;59.472;18.048;2023-02-28T11:18:29;6.90;99.90
10282;DHT22;5186;59.472;18.048;2023-02-28T11:20:50;6.90;99.90
10282;DHT22;5186;59.472;18.048;2023-02-28T11:23:16;7.00;99.90
10282;DHT22;5186;59.472;18.048;2023-02-28T11:25:50;7.00;99.90
10282;DHT22;5186;59.472;18.048;2023-02-28T11:28:30;7.10;99.90
10282;DHT22;5186;59.472;18.048;2023-02-28T11:33:50;7.20;99.90
10282;DHT22;5186;59.472;18.048;2023-02-28T11:36:23;7.30;99.90
10282;DHT22;5186;59.472;18.048;2023-02-28T11:38:54;7.30;99.90
10282;DHT22;5186;59.472;18.048;2023-02-28T11:41:29;7.40;99.90
10282;DHT22;5186;59.472;18.048;2023-02-28T11:44:09;7.40;99.90
10282;DHT22;5186;59.472;18.048;2023-02-28T11:46:48;7.50;99.90
10282;DHT22;5186;59.472;18.048;2023-02-28T11:50:11;7.50;99.90
10282;DHT22;5186;59.472;18.048;2023-02-28T11:54:51;7.60;99.90
10282;DHT22;5186;59.472;18.048;2023-02-28T12:09:09;7.70;99.90
10282;DHT22;5186;59.472;18.048;2023-02-28T12:26:00;8.00;99.90
10282;DHT22;5186;59.472;18.048;2023-02-28T12:28:35;8.10;99.90
10282;DHT22;5186;59.472;18.048;2023-02-28T12:31:11;8.10;99.90
10282;DHT22;5186;59.472;18.048;2023-02-28T12:33:42;8.20;99.90
10282;DHT22;5186;59.472;18.048;2023-02-28T12:36:15;8.20;99.90
10282;DHT22;5186;59.472;18.048;2023-02-28T12:38:48;8.30;99.90
10282;DHT22;5186;59.472;18.048;2023-02-28T12:41:26;8.30;99.90
10282;DHT22;5186;59.472;18.048;2023-02-28T12:44:02;8.30;99.90
10282;DHT22;5186;59.472;18.048;2023-02-28T12:46:35;8.40;99.90
10282;DHT22;5186;59.472;18.048;2023-02-28T12:49:11;8.40;99.90
10282;DHT22;5186;59.472;18.048;2023-02-28T12:51:38;8.40;99.90
10282;DHT22;5186;59.472;18.048;2023-02-28T13:00:43;8.50;99.90
10282;DHT22;5186;59.472;18.048;2023-02-28T13:11:46;8.70;99.90
10282;DHT22;5186;59.472;18.048;2023-02-28T13:14:35;8.70;99.90
10282;DHT22;5186;59.472;18.048;2023-02-28T13:19:37;8.70;99.90
10282;DHT22;5186;59.472;18.048;2023-02-28T13:22:04;8.80;99.90
10282;DHT22;5186;59.472;18.048;2023-02-28T13:29:51;8.80;99.90
10282;DHT22;5186;59.472;18.048;2023-02-28T13:32:35;8.90;99.90
10282;DHT22;5186;59.472;18.048;2023-02-28T13:37:34;8.80;99.90
10282;DHT22;5186;59.472;18.048;2023-02-28T13:40:26;8.80;99.90
10282;DHT22;5186;59.472;18.048;2023-02-28T13:42:52;8.80;99.90
10282;DHT22;5186;59.472;18.048;2023-02-28T13:45:26;8.80;99.90
10282;DHT22;5186;59.472;18.048;2023-02-28T13:48:03;8.80;99.90
10282;DHT22;5186;59.472;18.048;2023-02-28T13:57:58;8.80;99.90
10282;DHT22;5186;59.472;18.048;2023-02-28T14:01:21;8.80;99.90
10282;DHT22;5186;59.472;18.048;2023-02-28T14:04:12;8.80;99.90
10282;DHT22;5186;59.472;18.048;2023-02-28T14:06:48;8.80;99.90
10282;DHT22;5186;59.472;18.048;2023-02-28T14:09:30;8.70;99.90
10282;DHT22;5186;59.472;18.048;2023-02-28T14:13:11;8.70;99.90
10282;DHT22;5186;59.472;18.048;2023-02-28T14:15:26;8.70;99.90
10282;DHT22;5186;59.472;18.048;2023-02-28T14:17:54;8.70;99.90
10282;DHT22;5186;59.472;18.048;2023-02-28T14:20:22;8.60;99.90
10282;DHT22;5186;59.472;18.048;2023-02-28T14:25:51;8.60;99.90
10282;DHT22;5186;59.472;18.048;2023-02-28T14:28:27;8.60;99.90
10282;DHT22;5186;59.472;18.048;2023-02-28T14:36:27;8.60;99.90
10282;DHT22;5186;59.472;18.048;2023-02-28T14:38:59;8.60;99.90
10282;DHT22;5186;59.472;18.048;2023-02-28T14:41:37;8.70;99.90
10282;DHT22;5186;59.472;18.048;2023-02-28T14:46:49;8.60;99.90
10282;DHT22;5186;59.472;18.048;2023-02-28T14:51:43;8.60;99.90
10282;DHT22;5186;59.472;18.048;2023-02-28T14:54:16;8.60;99.90
10282;DHT22;5186;59.472;18.048;2023-02-28T14:56:49;8.60;99.90
10282;DHT22;5186;59.472;18.048;2023-02-28T14:59:30;8.50;99.90
10282;DHT22;5186;59.472;18.048;2023-02-28T15:04:40;8.40;99.90
10282;DHT22;5186;59.472;18.048;2023-02-28T15:07:16;8.30;99.90
10282;DHT22;5186;59.472;18.048;2023-02-28T15:09:42;8.30;99.90
10282;DHT22;5186;59.472;18.048;2023-02-28T15:12:13;8.20;99.90
10282;DHT22;5186;59.472;18.048;2023-02-28T15:14:42;8.20;99.90
10282;DHT22;5186;59.472;18.048;2023-02-28T15:17:17;8.20;99.90
10282;DHT22;5186;59.472;18.048;2023-02-28T15:19:48;8.20;99.90
10282;DHT22;5186;59.472;18.048;2023-02-28T15:22:20;8.10;99.90
10282;DHT22;5186;59.472;18.048;2023-02-28T15:24:52;8.10;99.90
10282;DHT22;5186;59.472;18.048;2023-02-28T15:27:29;8.00;99.90
10282;DHT22;5186;59.472;18.048;2023-02-28T15:30:05;7.90;99.90
10282;DHT22;5186;59.472;18.048;2023-02-28T15:32:37;7.90;99.90
10282;DHT22;5186;59.472;18.048;2023-02-28T15:37:55;7.70;99.90
10282;DHT22;5186;59.472;18.048;2023-02-28T15:43:12;7.60;99.90
10282;DHT22;5186;59.472;18.048;2023-02-28T15:45:50;7.50;99.90
10282;DHT22;5186;59.472;18.048;2023-02-28T15:48:29;7.40;99.90
10282;DHT22;5186;59.472;18.048;2023-02-28T15:51:01;7.30;99.90
10282;DHT22;5186;59.472;18.048;2023-02-28T15:53:34;7.20;99.90
10282;DHT22;5186;59.472;18.048;2023-02-28T15:56:12;7.20;99.90
10282;DHT22;5186;59.472;18.048;2023-02-28T15:58:42;7.10;99.90
10282;DHT22;5186;59.472;18.048;2023-02-28T16:01:20;7.00;99.90
10282;DHT22;5186;59.472;18.048;2023-02-28T16:03:51;6.90;99.90
10282;DHT22;5186;59.472;18.048;2023-02-28T16:08:42;6.70;99.90
10282;DHT22;5186;59.472;18.048;2023-02-28T16:11:11;6.70;99.90
10282;DHT22;5186;59.472;18.048;2023-02-28T16:13:37;6.60;99.90
10282;DHT22;5186;59.472;18.048;2023-02-28T16:16:03;6.50;99.90
10282;DHT22;5186;59.472;18.048;2023-02-28T16:18:28;6.40;99.90
10282;DHT22;5186;59.472;18.048;2023-02-28T16:20:54;6.30;99.90
10282;DHT22;5186;59.472;18.048;2023-02-28T16:23:20;6.20;99.90
10282;DHT22;5186;59.472;18.048;2023-02-28T16:25:45;6.10;99.90
10282;DHT22;5186;59.472;18.048;2023-02-28T16:28:24;6.00;99.90
10282;DHT22;5186;59.472;18.048;2023-02-28T16:30:53;6.00;99.90
10282;DHT22;5186;59.472;18.048;2023-02-28T16:33:19;5.80;99.90
10282;DHT22;5186;59.472;18.048;2023-02-28T16:35:44;5.70;99.90
10282;DHT22;5186;59.472;18.048;2023-02-28T16:38:10;5.70;99.90
10282;DHT22;5186;59.472;18.048;2023-02-28T16:40:36;5.60;99.90
10282;DHT22;5186;59.472;18.048;2023-02-28T16:43:05;5.50;99.90
10282;DHT22;5186;59.472;18.048;2023-02-28T16:45:32;5.40;99.90
10282;DHT22;5186;59.472;18.048;2023-02-28T16:47:59;5.40;99.90
10282;DHT22;5186;59.472;18.048;2023-02-28T16:50:27;5.40;99.90
10282;DHT22;5186;59.472;18.048;2023-02-28T16:52:53;5.30;99.90
10282;DHT22;5186;59.472;18.048;2023-02-28T16:55:20;5.20;99.90
10282;DHT22;5186;59.472;18.048;2023-02-28T16:57:59;5.20;99.90
10282;DHT22;5186;59.472;18.048;2023-02-28T17:00:27;5.10;99.90
10282;DHT22;5186;59.472;18.048;2023-02-28T17:02:53;5.00;99.90
10282;DHT22;5186;59.472;18.048;2023-02-28T17:05:19;5.00;99.90
10282;DHT22;5186;59.472;18.048;2023-02-28T17:07:46;5.00;99.90
10282;DHT22;5186;59.472;18.048;2023-02-28T17:10:23;5.00;99.90
10282;DHT22;5186;59.472;18.048;2023-02-28T17:12:49;4.90;99.90
10282;DHT22;5186;59.472;18.048;2023-02-28T17:15:17;4.90;99.90
10282;DHT22;5186;59.472;18.048;2023-02-28T17:17:43;4.80;99.90
10282;DHT22;5186;59.472;18.048;2023-02-28T17:20:20;4.80;99.90
10282;DHT22;5186;59.472;18.048;2023-02-28T17:22:50;4.80;99.90
10282;DHT22;5186;59.472;18.048;2023-02-28T17:25:16;4.70;99.90
10282;DHT22;5186;59.472;18.048;2023-02-28T17:27:42;4.60;99.90
10282;DHT22;5186;59.472;18.048;2023-02-28T17:30:23;4.60;99.90
10282;DHT22;5186;59.472;18.048;2023-02-28T17:32:48;4.50;99.90
10282;DHT22;5186;59.472;18.048;2023-02-28T17:35:14;4.40;99.90
10282;DHT22;5186;59.472;18.048;2023-02-28T17:37:41;4.40;99.90
10282;DHT22;5186;59.472;18.048;2023-02-28T17:40:16;4.30;99.90
10282;DHT22;5186;59.472;18.048;2023-02-28T17:42:43;4.20;99.90
10282;DHT22;5186;59.472;18.048;2023-02-28T17:45:10;4.20;99.90
10282;DHT22;5186;59.472;18.048;2023-02-28T17:47:36;4.10;99.90
10282;DHT22;5186;59.472;18.048;2023-02-28T17:50:02;4.10;99.90
10282;DHT22;5186;59.472;18.048;2023-02-28T17:52:28;4.00;99.90
10282;DHT22;5186;59.472;18.048;2023-02-28T17:54:55;4.00;99.90
10282;DHT22;5186;59.472;18.048;2023-02-28T17:57:21;4.00;99.90
10282;DHT22;5186;59.472;18.048;2023-02-28T17:59:46;3.90;99.90
10282;DHT22;5186;59.472;18.048;2023-02-28T18:02:13;3.90;99.90
10282;DHT22;5186;59.472;18.048;2023-02-28T18:04:38;3.90;99.90
10282;DHT22;5186;59.472;18.048;2023-02-28T18:07:06;3.80;99.90
10282;DHT22;5186;59.472;18.048;2023-02-28T18:09:31;3.80;99.90
10282;DHT22;5186;59.472;18.048;2023-02-28T18:11:57;3.90;99.90
10282;DHT22;5186;59.472;18.048;2023-02-28T18:14:24;3.80;99.90
10282;DHT22;5186;59.472;18.048;2023-02-28T18:16:51;3.80;99.90